createdAt,value
2018-04-26T00:02:11.470Z,100673.22
2018-04-26T00:04:37.274Z,100671.48
2018-04-26T00:07:03.077Z,100660.77
2018-04-26T00:09:28.882Z,100662.41
2018-04-26T00:11:54.691Z,100662.48
2018-04-26T00:14:20.621Z,100657.52
2018-04-26T00:16:46.429Z,100652.62
2018-04-26T00:19:12.236Z,100645.90
2018-04-26T00:21:38.036Z,100647.28
2018-04-26T00:24:03.843Z,100652.73
2018-04-26T00:26:29.658Z,100658.23
2018-04-26T00:28:55.460Z,100659.53
2018-04-26T00:31:21.268Z,100662.91
2018-04-26T00:33:47.073Z,100667.70
2018-04-26T00:36:12.882Z,100677.30
2018-04-26T00:38:38.688Z,100675.59
2018-04-26T00:41:04.493Z,100682.48
2018-04-26T00:43:30.303Z,100685.47
2018-04-26T00:45:56.230Z,100676.06
2018-04-26T00:48:22.033Z,100674.36
2018-04-26T00:50:47.970Z,100676.25
2018-04-26T00:53:13.777Z,100669.89
2018-04-26T00:55:39.591Z,100676.88
2018-04-26T00:58:05.440Z,100676.81
2018-04-26T01:00:31.243Z,100672.33
2018-04-26T01:02:57.051Z,100671.72
2018-04-26T01:05:22.890Z,100673.08
2018-04-26T01:07:48.732Z,100669.20
2018-04-26T01:10:14.636Z,100670.19
2018-04-26T01:12:40.449Z,100673.93
2018-04-26T01:15:06.252Z,100672.16
2018-04-26T01:17:32.097Z,100678.50
2018-04-26T01:19:57.907Z,100672.08
2018-04-26T01:22:23.734Z,100672.08
2018-04-26T01:24:49.543Z,100670.58
2018-04-26T01:27:15.384Z,100672.38
2018-04-26T01:29:41.290Z,100671.47
2018-04-26T01:32:07.091Z,100661.80
2018-04-26T01:34:32.890Z,100672.58
2018-04-26T01:37:04.996Z,100668.78
2018-04-26T01:39:30.800Z,100658.81
2018-04-26T01:41:56.636Z,100659.78
2018-04-26T01:44:22.442Z,100665.52
2018-04-26T01:46:48.902Z,100669.33
2018-04-26T01:49:14.704Z,100671.06
2018-04-26T01:51:40.545Z,100680.02
2018-04-26T01:54:06.456Z,100681.41
2018-04-26T01:56:32.262Z,100683.80
2018-04-26T01:58:58.073Z,100680.83
2018-04-26T02:01:24.401Z,100683.22
2018-04-26T02:03:50.208Z,100685.38
2018-04-26T02:06:16.064Z,100687.69
2018-04-26T02:08:41.873Z,100683.75
2018-04-26T02:11:07.708Z,100689.00
2018-04-26T02:13:33.513Z,100687.90
2018-04-26T02:15:59.357Z,100683.36
2018-04-26T02:18:25.163Z,100673.22
2018-04-26T02:20:50.969Z,100669.40
2018-04-26T02:23:16.794Z,100673.11
2018-04-26T02:25:42.694Z,100669.66
2018-04-26T02:28:08.585Z,100672.88
2018-04-26T02:30:34.394Z,100675.67
2018-04-26T02:33:00.226Z,100681.22
2018-04-26T02:35:26.031Z,100676.72
2018-04-26T02:37:51.864Z,100673.52
2018-04-26T02:40:17.685Z,100682.58
2018-04-26T02:42:43.515Z,100676.36
2018-04-26T02:45:10.348Z,100671.28
2018-04-26T02:47:36.182Z,100674.20
2018-04-26T02:50:02.022Z,100664.43
2018-04-26T02:52:27.824Z,100660.48
2018-04-26T02:54:53.657Z,100663.41
2018-04-26T02:57:19.461Z,100659.58
2018-04-26T02:59:45.261Z,100665.68
2018-04-26T03:02:11.068Z,100663.80
2018-04-26T03:04:36.873Z,100663.62
2018-04-26T03:07:02.753Z,100662.96
2018-04-26T03:09:28.569Z,100674.63
2018-04-26T03:11:54.518Z,100666.77
2018-04-26T03:14:20.361Z,100672.28
2018-04-26T03:16:46.190Z,100672.91
2018-04-26T03:19:12.125Z,100666.98
2018-04-26T03:21:37.953Z,100669.05
2018-04-26T03:24:03.761Z,100663.55
2018-04-26T03:26:29.755Z,100664.83
2018-04-26T03:28:55.617Z,100662.69
2018-04-26T03:31:21.435Z,100655.08
2018-04-26T03:33:47.287Z,100652.73
2018-04-26T03:36:13.142Z,100655.05
2018-04-26T03:38:38.951Z,100657.14
2018-04-26T03:41:04.781Z,100663.91
2018-04-26T03:43:30.590Z,100665.73
2018-04-26T03:45:56.430Z,100652.73
2018-04-26T03:48:22.236Z,100650.78
2018-04-26T03:50:48.041Z,100652.27
2018-04-26T03:53:13.849Z,100641.61
2018-04-26T03:55:39.649Z,100643.58
2018-04-26T03:58:05.525Z,100646.95
2018-04-26T04:00:37.398Z,100650.09
2018-04-26T04:03:09.545Z,100652.98
2018-04-26T04:05:41.374Z,100650.41
2018-04-26T04:08:07.176Z,100653.83
2018-04-26T04:10:33.049Z,100655.15
2018-04-26T04:12:58.861Z,100651.59
2018-04-26T04:15:24.665Z,100652.80
2018-04-26T04:17:50.611Z,100648.02
2018-04-26T04:20:16.414Z,100655.96
2018-04-26T04:22:42.221Z,100654.23
2018-04-26T04:25:08.025Z,100654.15
2018-04-26T04:27:33.825Z,100652.97
2018-04-26T04:29:59.834Z,100657.45
2018-04-26T04:32:25.638Z,100654.97
2018-04-26T04:34:51.443Z,100659.35
2018-04-26T04:37:17.245Z,100659.06
2018-04-26T04:39:43.057Z,100664.73
2018-04-26T04:42:08.861Z,100658.80
2018-04-26T04:44:34.690Z,100663.62
2018-04-26T04:47:00.660Z,100667.38
2018-04-26T04:49:26.547Z,100660.63
2018-04-26T04:51:52.352Z,100665.16
2018-04-26T04:54:18.154Z,100665.98
2018-04-26T04:56:43.965Z,100670.52
2018-04-26T04:59:09.769Z,100667.77
2018-04-26T05:01:35.576Z,100663.94
2018-04-26T05:04:01.500Z,100664.22
2018-04-26T05:06:27.308Z,100660.53
2018-04-26T05:08:53.150Z,100659.23
2018-04-26T05:11:19.021Z,100665.45
2018-04-26T05:13:44.947Z,100667.08
2018-04-26T05:16:10.898Z,100665.10
2018-04-26T05:18:36.928Z,100659.15
2018-04-26T05:21:04.188Z,100668.60
2018-04-26T05:23:30.723Z,100664.94
2018-04-26T05:25:59.000Z,100668.85
2018-04-26T05:28:24.859Z,100667.12
2018-04-26T05:30:50.841Z,100670.02
2018-04-26T05:33:16.646Z,100674.67
2018-04-26T05:35:42.457Z,100675.27
2018-04-26T05:38:08.260Z,100679.30
2018-04-26T05:40:34.108Z,100678.64
2018-04-26T05:42:59.915Z,100681.85
2018-04-26T05:45:25.712Z,100675.83
2018-04-26T05:47:51.558Z,100679.09
2018-04-26T05:50:17.377Z,100675.19
2018-04-26T05:52:43.185Z,100674.41
2018-04-26T05:55:09.149Z,100684.01
2018-04-26T05:57:35.097Z,100697.78
2018-04-26T06:00:00.909Z,100695.84
2018-04-26T06:02:26.739Z,100697.72
2018-04-26T06:04:52.572Z,100705.97
2018-04-26T06:07:18.430Z,100699.12
2018-04-26T06:09:44.234Z,100703.65
2018-04-26T06:12:10.152Z,100709.78
2018-04-26T06:14:35.968Z,100703.06
2018-04-26T06:17:02.021Z,100716.33
2018-04-26T06:19:41.122Z,100721.31
2018-04-26T06:22:06.986Z,100714.49
2018-04-26T06:24:32.793Z,100723.11
2018-04-26T06:26:58.607Z,100720.02
2018-04-26T06:29:24.421Z,100726.33
2018-04-26T06:31:50.234Z,100716.39
2018-04-26T06:34:16.045Z,100722.38
2018-04-26T06:36:41.856Z,100721.98
2018-04-26T06:39:07.711Z,100724.43
2018-04-26T06:41:33.516Z,100721.39
2018-04-26T06:43:59.320Z,100716.98
2018-04-26T06:46:25.240Z,100719.78
2018-04-26T06:48:51.049Z,100727.19
2018-04-26T06:51:17.732Z,100728.59
2018-04-26T06:53:43.541Z,100729.86
2018-04-26T06:56:09.346Z,100725.36
2018-04-26T06:58:35.177Z,100720.73
2018-04-26T07:01:01.026Z,100726.64
2018-04-26T07:03:26.852Z,100731.30
2018-04-26T07:05:52.695Z,100729.73
2018-04-26T07:08:18.513Z,100731.97
2018-04-26T07:10:45.246Z,100719.37
2018-04-26T07:13:11.056Z,100730.70
2018-04-26T07:15:36.860Z,100731.26
2018-04-26T07:18:02.694Z,100727.21
2018-04-26T07:20:28.525Z,100723.50
2018-04-26T07:22:54.337Z,100716.25
2018-04-26T07:25:20.174Z,100715.81
2018-04-26T07:27:46.497Z,100702.80
2018-04-26T07:30:12.461Z,100710.75
2018-04-26T07:32:38.309Z,100711.55
2018-04-26T07:35:04.146Z,100720.73
2018-04-26T07:37:29.965Z,100724.36
2018-04-26T07:39:55.840Z,100718.95
2018-04-26T07:42:21.662Z,100716.97
2018-04-26T07:44:47.639Z,100716.25
2018-04-26T07:47:13.432Z,100714.71
2018-04-26T07:49:39.246Z,100711.66
2018-04-26T07:52:05.054Z,100716.04
2018-04-26T07:54:30.866Z,100707.50
2018-04-26T07:56:56.676Z,100707.17
2018-04-26T07:59:22.488Z,100714.63
2018-04-26T08:01:49.084Z,100713.89
2018-04-26T08:04:14.824Z,100712.64
2018-04-26T08:06:40.628Z,100716.50
2018-04-26T08:09:06.432Z,100709.41
2018-04-26T08:11:32.356Z,100713.91
2018-04-26T08:13:58.186Z,100707.24
2018-04-26T08:16:23.993Z,100714.78
2018-04-26T08:18:49.808Z,100711.23
2018-04-26T08:21:15.613Z,100706.16
2018-04-26T08:23:41.421Z,100702.63
2018-04-26T08:26:07.237Z,100707.65
2018-04-26T08:28:33.071Z,100706.32
2018-04-26T08:31:10.913Z,100712.83
2018-04-26T08:33:50.811Z,100710.25
2018-04-26T08:36:16.700Z,100696.01
2018-04-26T08:38:42.589Z,100693.56
2018-04-26T08:41:08.401Z,100683.87
2018-04-26T08:43:34.218Z,100685.23
2018-04-26T08:46:00.070Z,100672.30
2018-04-26T08:48:25.890Z,100663.73
2018-04-26T08:50:51.791Z,100677.55
2018-04-26T08:53:17.601Z,100670.63
2018-04-26T08:55:43.423Z,100662.70
2018-04-26T08:58:09.234Z,100670.91
2018-04-26T09:00:35.041Z,100681.77
2018-04-26T09:03:00.873Z,100682.17
2018-04-26T09:05:26.686Z,100681.01
2018-04-26T09:07:52.500Z,100688.14
2018-04-26T09:10:18.317Z,100692.08
2018-04-26T09:12:44.133Z,100687.55
2018-04-26T09:15:09.953Z,100692.84
2018-04-26T09:17:35.783Z,100689.12
2018-04-26T09:20:01.652Z,100693.91
2018-04-26T09:22:27.474Z,100705.97
2018-04-26T09:24:53.360Z,100701.30
2018-04-26T09:27:19.128Z,100700.62
2018-04-26T09:29:44.942Z,100732.72
2018-04-26T09:32:10.786Z,100777.69
2018-04-26T09:34:36.633Z,100770.53
2018-04-26T09:37:02.470Z,100769.99
2018-04-26T09:39:28.329Z,100766.53
2018-04-26T09:41:54.275Z,100758.22
2018-04-26T09:44:20.129Z,100760.28
2018-04-26T09:46:45.939Z,100764.81
2018-04-26T09:49:11.745Z,100762.67
2018-04-26T09:51:37.556Z,100772.94
2018-04-26T09:54:03.365Z,100766.14
2018-04-26T09:56:29.176Z,100773.39
2018-04-26T09:58:54.985Z,100769.27
2018-04-26T10:01:26.913Z,100771.48
2018-04-26T10:03:53.708Z,100780.33
2018-04-26T10:06:26.538Z,100784.19
2018-04-26T10:08:52.412Z,100799.41
2018-04-26T10:11:18.273Z,100800.34
2018-04-26T10:13:44.087Z,100806.92
2018-04-26T10:16:09.925Z,100806.02
2018-04-26T10:18:35.732Z,100810.17
2018-04-26T10:21:01.628Z,100813.49
2018-04-26T10:23:27.540Z,100817.11
2018-04-26T10:25:53.348Z,100817.79
2018-04-26T10:28:19.179Z,100816.97
2018-04-26T10:30:45.017Z,100815.47
2018-04-26T10:33:10.862Z,100814.56
2018-04-26T10:35:36.783Z,100812.65
2018-04-26T10:38:02.607Z,100806.59
2018-04-26T10:40:28.416Z,100810.00
2018-04-26T10:42:54.305Z,100814.70
2018-04-26T10:45:20.147Z,100811.33
2018-04-26T10:47:45.961Z,100809.96
2018-04-26T10:50:11.801Z,100810.48
2018-04-26T10:52:37.619Z,100819.30
2018-04-26T10:55:03.478Z,100823.55
2018-04-26T10:57:29.317Z,100825.05
2018-04-26T10:59:55.254Z,100816.70
2018-04-26T11:02:21.081Z,100817.52
2018-04-26T11:04:46.888Z,100821.59
2018-04-26T11:07:12.724Z,100813.61
2018-04-26T11:09:38.541Z,100808.18
2018-04-26T11:12:04.375Z,100811.49
2018-04-26T11:14:30.189Z,100808.04
2018-04-26T11:16:56.044Z,100791.58
2018-04-26T11:19:21.909Z,100794.30
2018-04-26T11:21:47.719Z,100799.08
2018-04-26T11:24:13.525Z,100798.31
2018-04-26T11:26:39.341Z,100792.44
2018-04-26T11:29:05.161Z,100793.80
2018-04-26T11:31:30.969Z,100788.64
2018-04-26T11:33:56.781Z,100799.22
2018-04-26T11:36:22.593Z,100794.50
2018-04-26T11:38:48.412Z,100788.80
2018-04-26T11:41:14.224Z,100787.50
2018-04-26T11:43:40.042Z,100790.15
2018-04-26T11:46:05.860Z,100799.33
2018-04-26T11:48:31.697Z,100796.91
2018-04-26T11:50:57.505Z,100794.29
2018-04-26T11:53:23.319Z,100794.09
2018-04-26T11:55:49.130Z,100792.58
2018-04-26T11:58:14.940Z,100797.16
2018-04-26T12:00:40.783Z,100804.36
2018-04-26T12:03:06.678Z,100797.10
2018-04-26T12:05:32.486Z,100795.50
2018-04-26T12:07:58.292Z,100807.41
2018-04-26T12:10:24.109Z,100798.50
2018-04-26T12:12:49.957Z,100800.71
2018-04-26T12:15:15.765Z,100808.37
2018-04-26T12:17:41.603Z,100798.79
2018-04-26T12:20:07.448Z,100811.19
2018-04-26T12:22:33.261Z,100807.91
2018-04-26T12:24:59.074Z,100802.41
2018-04-26T12:27:25.012Z,100812.07
2018-04-26T12:29:50.828Z,100814.52
2018-04-26T12:32:16.636Z,100816.53
2018-04-26T12:34:42.541Z,100818.83
2018-04-26T12:37:08.357Z,100812.94
2018-04-26T12:39:34.199Z,100812.80
2018-04-26T12:42:00.141Z,100828.27
2018-04-26T12:44:25.954Z,100827.03
2018-04-26T12:46:51.773Z,100828.66
2018-04-26T12:49:17.586Z,100837.58
2018-04-26T12:51:43.404Z,100828.22
2018-04-26T12:54:09.217Z,100834.52
2018-04-26T12:56:35.036Z,100836.67
2018-04-26T12:59:00.853Z,100843.30
2018-04-26T13:01:26.671Z,100836.45
2018-04-26T13:03:52.485Z,100831.82
2018-04-26T13:06:18.301Z,100842.20
2018-04-26T13:08:44.112Z,100846.19
2018-04-26T13:11:09.961Z,100844.23
2018-04-26T13:13:35.781Z,100854.25
2018-04-26T13:16:01.598Z,100849.33
2018-04-26T13:18:27.416Z,100860.79
2018-04-26T13:20:53.234Z,100856.17
2018-04-26T13:23:19.105Z,100856.80
2018-04-26T13:25:44.941Z,100849.16
2018-04-26T13:28:10.784Z,100847.66
2018-04-26T13:30:36.621Z,100843.72
2018-04-26T13:33:02.457Z,100846.95
2018-04-26T13:35:28.329Z,100839.59
2018-04-26T13:37:54.137Z,100836.08
2018-04-26T13:40:20.002Z,100836.89
2018-04-26T13:42:45.817Z,100836.84
2018-04-26T13:45:11.661Z,100853.55
2018-04-26T13:47:37.509Z,100846.11
2018-04-26T13:50:03.325Z,100843.67
2018-04-26T13:52:29.230Z,100856.94
2018-04-26T13:54:55.041Z,100853.43
2018-04-26T13:57:20.885Z,100855.20
2018-04-26T13:59:46.696Z,100860.70
2018-04-26T14:02:12.552Z,100854.53
2018-04-26T14:04:38.358Z,100856.57
2018-04-26T14:07:04.242Z,100854.30
2018-04-26T14:09:30.056Z,100861.23
2018-04-26T14:11:55.902Z,100868.36
2018-04-26T14:14:21.713Z,100865.03
2018-04-26T14:16:47.561Z,100867.14
2018-04-26T14:19:13.373Z,100886.50
2018-04-26T14:21:39.216Z,100883.71
2018-04-26T14:24:05.083Z,100870.33
2018-04-26T14:26:30.926Z,100872.31
2018-04-26T14:28:56.797Z,100871.95
2018-04-26T14:31:22.612Z,100865.70
2018-04-26T14:33:48.432Z,100866.74
2018-04-26T14:36:14.245Z,100865.28
2018-04-26T14:38:40.057Z,100870.60
2018-04-26T14:41:05.872Z,100861.25
2018-04-26T14:43:31.739Z,100863.17
2018-04-26T14:45:57.553Z,100862.89
2018-04-26T14:48:23.377Z,100863.43
2018-04-26T14:50:49.218Z,100856.17
2018-04-26T14:53:15.029Z,100863.84
2018-04-26T14:55:40.882Z,100863.98
2018-04-26T14:58:06.694Z,100866.61
2018-04-26T15:00:32.537Z,100861.13
2018-04-26T15:02:58.349Z,100868.14
2018-04-26T15:05:24.245Z,100861.36
2018-04-26T15:07:50.153Z,100865.29
2018-04-26T15:10:15.993Z,100870.84
2018-04-26T15:12:41.805Z,100867.23
2018-04-26T15:15:07.646Z,100865.33
2018-04-26T15:17:33.946Z,100866.12
2018-04-26T15:19:59.754Z,100877.74
2018-04-26T15:22:25.574Z,100879.47
2018-04-26T15:24:51.381Z,100880.23
2018-04-26T15:27:17.216Z,100880.55
2018-04-26T15:29:43.021Z,100884.37
2018-04-26T15:32:08.840Z,100891.14
2018-04-26T15:34:34.663Z,100889.26
2018-04-26T15:37:00.483Z,100908.54
2018-04-26T15:39:26.298Z,100930.70
2018-04-26T15:41:52.114Z,100927.67
2018-04-26T15:44:17.937Z,100945.41
2018-04-26T15:46:44.826Z,100953.91
2018-04-26T15:49:10.654Z,100956.73
2018-04-26T15:51:36.536Z,100956.28
2018-04-26T15:54:08.474Z,100954.05
2018-04-26T15:56:53.441Z,100950.56
2018-04-26T15:59:25.550Z,100955.27
2018-04-26T16:05:19.067Z,100970.70
2018-04-26T16:07:57.344Z,100966.55
2018-04-26T16:10:29.478Z,100974.78
2018-04-26T16:13:07.723Z,100977.50
2018-04-26T16:18:30.486Z,100983.34
2018-04-26T16:21:08.672Z,100988.63
2018-04-26T16:23:46.898Z,101003.27
2018-04-26T16:26:18.826Z,100996.64
2018-04-26T16:28:57.308Z,101001.62
2018-04-26T16:31:35.452Z,100996.44
2018-04-26T16:34:07.492Z,100999.02
2018-04-26T16:36:39.548Z,100993.29
2018-04-26T16:39:11.450Z,100994.48
2018-04-26T16:41:38.180Z,100994.05
2018-04-26T16:44:03.981Z,100999.35
2018-04-26T16:46:29.827Z,100994.19
2018-04-26T16:48:55.641Z,100995.59
2018-04-26T16:51:21.597Z,100998.96
2018-04-26T16:53:47.402Z,100997.95
2018-04-26T16:56:13.205Z,101000.19
2018-04-26T16:58:39.013Z,101008.52
2018-04-26T17:03:53.461Z,101017.67
2018-04-26T17:06:19.275Z,101013.95
2018-04-26T17:08:45.090Z,101015.89
2018-04-26T17:11:10.899Z,101013.17
2018-04-26T17:13:38.270Z,101019.11
2018-04-26T17:16:04.189Z,101022.28
2018-04-26T17:18:29.997Z,101020.50
2018-04-26T17:20:55.884Z,101014.89
2018-04-26T17:23:21.653Z,101010.95
2018-04-26T17:25:47.466Z,101019.20
2018-04-26T17:28:13.347Z,101021.86
2018-04-26T17:30:39.112Z,101019.87
2018-04-26T17:33:04.928Z,101023.59
2018-04-26T17:35:30.729Z,101024.71
2018-04-26T17:37:56.568Z,101025.69
2018-04-26T17:40:22.376Z,101027.14
2018-04-26T17:42:48.190Z,101036.04
2018-04-26T17:45:13.992Z,101029.91
2018-04-26T17:47:39.801Z,101032.55
2018-04-26T17:50:05.622Z,101028.73
2018-04-26T17:52:31.440Z,101036.58
2018-04-26T17:54:57.240Z,101036.32
2018-04-26T17:57:23.052Z,101041.39
2018-04-26T17:59:48.861Z,101043.36
2018-04-26T18:02:14.683Z,101047.02
2018-04-26T18:04:40.499Z,101050.02
2018-04-26T18:07:06.414Z,101047.45
2018-04-26T18:09:32.276Z,101055.97
2018-04-26T18:11:58.153Z,101056.97
2018-04-26T18:14:23.961Z,101062.86
2018-04-26T18:16:49.857Z,101063.13
2018-04-26T18:19:15.635Z,101065.20
2018-04-26T18:21:41.437Z,101070.08
2018-04-26T18:24:07.277Z,101075.95
2018-04-26T18:26:34.044Z,101076.72
2018-04-26T18:28:59.981Z,101084.81
2018-04-26T18:31:25.816Z,101091.45
2018-04-26T18:33:51.629Z,101098.81
2018-04-26T18:36:17.543Z,101099.91
2018-04-26T18:38:43.355Z,101108.91
2018-04-26T18:41:09.209Z,101108.64
2018-04-26T18:43:35.136Z,101116.34
2018-04-26T18:46:01.059Z,101107.50
2018-04-26T18:48:26.864Z,101098.88
2018-04-26T18:50:52.817Z,101107.73
2018-04-26T18:53:18.755Z,101106.34
2018-04-26T18:55:44.581Z,101115.62
2018-04-26T18:58:11.182Z,101121.31
2018-04-26T19:00:37.002Z,101119.82
2018-04-26T19:03:04.010Z,101118.87
2018-04-26T19:05:29.993Z,101119.77
2018-04-26T19:07:56.100Z,101128.38
2018-04-26T19:10:22.118Z,101131.64
2018-04-26T19:12:47.979Z,101125.12
2018-04-26T19:15:13.865Z,101134.58
2018-04-26T19:17:39.789Z,101132.16
2018-04-26T19:20:05.998Z,101134.80
2018-04-26T19:22:31.945Z,101130.14
2018-04-26T19:25:00.577Z,101136.76
2018-04-26T19:27:26.639Z,101133.55
2018-04-26T19:29:53.136Z,101140.60
2018-04-26T19:32:18.985Z,101139.83
2018-04-26T19:34:44.796Z,101147.16
2018-04-26T19:37:10.750Z,101143.73
2018-04-26T19:39:45.712Z,101149.94
2018-04-26T19:42:15.203Z,101142.63
2018-04-26T19:44:44.554Z,101145.16
2018-04-26T19:47:13.304Z,101146.31
2018-04-26T19:49:41.992Z,101146.97
2018-04-26T19:52:15.555Z,101151.26
2018-04-26T19:54:42.522Z,101153.45
2018-04-26T19:57:09.759Z,101156.83
2018-04-26T19:59:40.410Z,101160.74
2018-04-26T20:02:14.432Z,101162.01
2018-04-26T20:04:48.489Z,101161.88
2018-04-26T20:07:33.484Z,101170.31
2018-04-26T20:10:04.987Z,101170.02
2018-04-26T20:12:43.906Z,101176.83
2018-04-26T20:15:25.739Z,101177.61
2018-04-26T20:18:06.677Z,101177.48
2018-04-26T20:20:33.303Z,101183.55
2018-04-26T20:23:06.625Z,101184.03
2018-04-26T20:25:32.497Z,101179.64
2018-04-26T20:27:58.601Z,101179.70
2018-04-26T20:30:24.946Z,101183.84
2018-04-26T20:32:50.923Z,101183.61
2018-04-26T20:35:18.643Z,101185.48
2018-04-26T20:37:45.393Z,101186.02
2018-04-26T20:40:17.792Z,101189.32
2018-04-26T20:42:45.502Z,101180.48
2018-04-26T20:45:16.101Z,101187.22
2018-04-26T20:47:47.253Z,101183.48
2018-04-26T20:50:18.376Z,101180.67
2018-04-26T20:55:26.698Z,101187.29
2018-04-26T20:57:57.854Z,101186.45
2018-04-26T21:03:21.819Z,101192.20
2018-04-26T21:05:51.503Z,101195.30
2018-04-26T21:08:22.294Z,101201.48
2018-04-26T21:11:06.244Z,101208.59
2018-04-26T21:13:36.253Z,101208.23
2018-04-26T21:16:06.801Z,101204.42
2018-04-26T21:18:40.057Z,101202.33
2018-04-26T21:21:07.608Z,101208.39
2018-04-26T21:23:35.996Z,101203.23
2018-04-26T21:26:01.936Z,101202.48
2018-04-26T21:28:27.745Z,101203.11
2018-04-26T21:30:53.633Z,101201.00
2018-04-26T21:33:19.438Z,101199.84
2018-04-26T21:35:45.313Z,101190.48
2018-04-26T21:38:11.092Z,101199.97
2018-04-26T21:40:36.914Z,101202.48
2018-04-26T21:43:02.741Z,101200.33
2018-04-26T21:45:28.628Z,101202.08
2018-04-26T21:47:54.444Z,101197.33
2018-04-26T21:50:26.444Z,101201.16
2018-04-26T21:52:58.456Z,101203.95
2018-04-26T21:55:30.296Z,101201.10
2018-04-26T21:58:02.226Z,101203.66
2018-04-26T22:00:34.206Z,101205.33
2018-04-26T22:02:59.949Z,101209.23
2018-04-26T22:05:25.773Z,101199.61
2018-04-26T22:07:51.681Z,101202.36
2018-04-26T22:10:17.508Z,101203.66
2018-04-26T22:12:43.315Z,101199.68
2018-04-26T22:15:09.126Z,101202.14
2018-04-26T22:17:34.937Z,101205.49
2018-04-26T22:20:00.741Z,101197.88
2018-04-26T22:22:26.600Z,101200.91
2018-04-26T22:24:52.401Z,101208.62
2018-04-26T22:27:18.209Z,101205.75
2018-04-26T22:29:44.133Z,101212.50
2018-04-26T22:32:09.939Z,101208.69
2018-04-26T22:34:35.756Z,101217.95
2018-04-26T22:37:01.589Z,101221.98
2018-04-26T22:39:27.392Z,101222.34
2018-04-26T22:41:53.201Z,101220.89
2018-04-26T22:44:19.041Z,101228.28
2018-04-26T22:46:44.841Z,101219.56
2018-04-26T22:49:10.672Z,101219.59
2018-04-26T22:51:36.483Z,101218.56
2018-04-26T22:54:02.290Z,101222.95
2018-04-26T22:56:28.100Z,101214.89
2018-04-26T22:58:53.904Z,101217.79
2018-04-26T23:01:19.701Z,101214.72
2018-04-26T23:03:45.541Z,101212.14
2018-04-26T23:06:11.351Z,101221.34
2018-04-26T23:08:37.208Z,101223.89
2018-04-26T23:11:03.022Z,101228.02
2018-04-26T23:13:28.832Z,101230.12
2018-04-26T23:15:54.745Z,101231.66
2018-04-26T23:18:20.552Z,101233.12
2018-04-26T23:20:46.417Z,101236.60
2018-04-26T23:23:12.253Z,101234.47
2018-04-26T23:25:38.054Z,101235.84
2018-04-26T23:28:03.856Z,101239.67
2018-04-26T23:30:29.666Z,101247.73
2018-04-26T23:32:55.578Z,101245.51
2018-04-26T23:35:21.389Z,101244.80
2018-04-26T23:37:47.189Z,101250.66
2018-04-26T23:40:12.992Z,101245.39
2018-04-26T23:42:38.796Z,101247.13
2018-04-26T23:45:04.612Z,101243.54
2018-04-26T23:47:30.412Z,101243.45
2018-04-26T23:49:56.253Z,101240.52
2018-04-26T23:52:22.169Z,101235.47
2018-04-26T23:54:47.965Z,101236.30
2018-04-26T23:57:13.797Z,101234.79
2018-04-26T23:59:39.630Z,101234.91
